Buoy 44837

sailwx.info

Track history (hours):
 
Tides and Currents Weather Stations Pressure Air Temp Water Temp Dewpoint Dewpoint Depression Visibility Wind Speed Wind Dir Waves Ship Positions

Drifting buoy 44837

Last reported at 2016-Dec-03 00:00 UTC. Time now 2016-Dec-03 02:32 UTC.
Position N 18°37' W 075°31'.

Barometer 1012.9 mb
Water temperature 28.2 ° C

Date/timePositionNaut miles runAvg speedWind from/ knotsBaromVisibWave heightAir tempDewpointWater temp
2016-Dec-03 00:00N 18°37' W 075°31'1 0.8 1012.9 28.2
2016-Dec-02 23:00N 18°37' W 075°31'0 0.0 1012.4 28.2
2016-Dec-02 22:00N 18°37' W 075°31'1 0.8 1012.1 28.2
2016-Dec-02 21:00N 18°38' W 075°30'1 0.8 1012.0 28.3
2016-Dec-02 20:00N 18°38' W 075°29'1 0.6 1011.9 28.3
2016-Dec-02 19:00N 18°39' W 075°29'1 0.8 1012.3 28.3
2016-Dec-02 18:00N 18°40' W 075°29'1 0.8 1012.9 28.3
2016-Dec-02 17:00N 18°40' W 075°28'1 0.6 1013.9 28.3
2016-Dec-02 16:00N 18°41' W 075°28'1 0.8 1014.6 28.2
2016-Dec-02 15:00N 18°41' W 075°28'0 0.0 1014.8 28.1
2016-Dec-02 14:00N 18°41' W 075°28'1 0.6 1014.9 27.9
2016-Dec-02 13:00N 18°42' W 075°28'0 0.0 1014.5 27.9
2016-Dec-02 12:00N 18°42' W 075°28'1 0.6 1013.7 27.9
2016-Dec-02 11:00N 18°43' W 075°28'1 0.6 1012.7 27.9
2016-Dec-02 10:00N 18°43' W 075°28'1 0.4 1012.2 27.9
2016-Dec-02 08:00N 18°44' W 075°27'1 0.6 1011.7 27.9
2016-Dec-02 07:00N 18°44' W 075°26'1 0.8 1012.0 27.9
2016-Dec-02 06:00N 18°44' W 075°26'1 0.6 1012.6 27.9
2016-Dec-02 05:00N 18°45' W 075°26'1 0.8 1012.8 27.9
2016-Dec-02 04:00N 18°46' W 075°25'1 0.6 1012.8 27.9
2016-Dec-02 03:00N 18°46' W 075°25'1 0.8 1012.7 27.9
2016-Dec-02 02:00N 18°46' W 075°24'1 0.8 1012.5 27.9
2016-Dec-02 01:00N 18°47' W 075°23'1 0.8 1012.2 27.9
2016-Dec-02 00:00N 18°47' W 075°23'1 1.3 1011.5 27.9
2016-Dec-01 23:00N 18°49' W 075°22'1 0.8 1011.2 27.9
2016-Dec-01 22:00N 18°49' W 075°22'1 0.8 1011.1 28.0
2016-Dec-01 21:00N 18°50' W 075°21'1 1.3 1010.9 28.0
2016-Dec-01 20:00N 18°51' W 075°20'1 1.3 1010.6 28.1
2016-Dec-01 19:00N 18°52' W 075°20'1 1.3 1011.0 28.2
2016-Dec-01 18:00N 18°53' W 075°19'1 0.6 1011.5 28.2
2016-Dec-01 17:00N 18°54' W 075°19'1 1.3 1012.5 28.1
2016-Dec-01 16:00N 18°55' W 075°19'1 1.2 1013.3 28.0
2016-Dec-01 15:00N 18°56' W 075°19'1 1.2 1013.6 27.8
2016-Dec-01 14:00N 18°58' W 075°19'1 1.2 1013.2 27.8
2016-Dec-01 13:00N 18°59' W 075°19'1 1.2 1012.7 27.7
2016-Dec-01 12:00N 19°00' W 075°19'1 1.2 1012.2 27.7
2016-Dec-01 11:00N 19°01' W 075°19'1 1.2 1011.6 27.6
2016-Dec-01 10:00N 19°02' W 075°19'2 0.9 1011.3 27.6
2016-Dec-01 08:00N 19°04' W 075°19'1 0.6 1011.3 27.6
2016-Dec-01 07:00N 19°05' W 075°19'1 1.2 1011.7 27.6
2016-Dec-01 06:00N 19°06' W 075°19'1 0.8 1012.3 27.6
2016-Dec-01 05:00N 19°07' W 075°18'2 0.9 1012.7 27.6
2016-Dec-01 03:00N 19°08' W 075°18'1 1.3 1013.4 27.6
2016-Dec-01 02:00N 19°10' W 075°17'1 0.6 1013.3 27.6
2016-Dec-01 01:00N 19°10' W 075°17'1 0.8 1012.9 27.6
2016-Dec-01 00:00N 19°11' W 075°17'1 0.6 1012.4 27.6
2016-Nov-30 23:00N 19°11' W 075°17'1 0.6 1011.6 27.6
2016-Nov-30 22:00N 19°11' W 075°16'1 0.8 1011.3 27.6
2016-Nov-30 21:00N 19°12' W 075°16'1 1.3 1011.0 27.6
2016-Nov-30 20:00N 19°13' W 075°15'1 0.8 1010.6 27.6
2016-Nov-30 19:00N 19°14' W 075°14'1 1.3 1010.3 27.6
2016-Nov-30 18:00N 19°15' W 075°14'1 0.8 1010.7 27.6
2016-Nov-30 17:00N 19°16' W 075°13'1 1.3 1011.7 27.5
2016-Nov-30 16:00N 19°17' W 075°13'1 1.3 1012.2 27.5
2016-Nov-30 15:00N 19°17' W 075°11'1 0.8 1012.3 27.4
2016-Nov-30 14:00N 19°18' W 075°11'1 1.3 1012.3 27.4
2016-Nov-30 13:00N 19°19' W 075°10'1 1.3 1012.0 27.4
2016-Nov-30 12:00N 19°20' W 075°10'1 1.3 1011.7 27.3
2016-Nov-30 11:00N 19°22' W 075°09'1 1.3 1011.1 27.3
2016-Nov-30 10:00N 19°23' W 075°08'1 1.3 1010.7 27.3
2016-Nov-30 09:00N 19°24' W 075°08'2 1.6 1010.4 27.3
2016-Nov-30 08:00N 19°25' W 075°07'1 0.8 1010.8 27.3
2016-Nov-30 07:00N 19°26' W 075°06'2 1.6 1011.2 27.2
2016-Nov-30 06:00N 19°27' W 075°05'1 1.3 1011.8 27.2
2016-Nov-30 05:00N 19°28' W 075°04'1 1.3 1011.8 27.2
2016-Nov-30 04:00N 19°28' W 075°02'2 2.1 1012.5 27.3
2016-Nov-30 03:00N 19°29' W 075°01'2 1.8 1012.9 27.3
2016-Nov-30 02:00N 19°30' W 074°59'2 1.8 1012.4 27.3
2016-Nov-30 01:00N 19°31' W 074°57'2 1.8 1012.0 27.3
2016-Nov-30 00:00N 19°31' W 074°55'2 2.1 1011.3 27.3
2016-Nov-29 23:00N 19°32' W 074°53'2 1.8 1011.0 27.4
2016-Nov-29 22:00N 19°33' W 074°52'2 2.1 1010.7 27.3
2016-Nov-29 21:00N 19°34' W 074°50'2 1.8 1010.9 27.3
2016-Nov-29 20:00N 19°35' W 074°48'2 2.1 1010.8 27.3
2016-Nov-29 19:00N 19°36' W 074°46'2 2.3 1011.0 27.3
2016-Nov-29 18:00N 19°37' W 074°44'2 1.8 1011.5 27.4
2016-Nov-29 17:00N 19°37' W 074°42'2 1.8 1012.3 27.4
2016-Nov-29 16:00N 19°38' W 074°40'2 1.8 1013.0 27.3
2016-Nov-29 15:00N 19°38' W 074°38'2 2.1 1013.4 27.3
2016-Nov-29 14:00N 19°40' W 074°37'2 1.8 1013.2 27.4
2016-Nov-29 13:00N 19°40' W 074°35'2 2.1 1012.8 27.4
2016-Nov-29 12:00N 19°41' W 074°33'1 1.3 1012.5 27.4
2016-Nov-29 11:00N 19°42' W 074°32'2 1.8 1012.0 27.5
2016-Nov-29 10:00N 19°43' W 074°30'1 1.3 1011.3 27.5
2016-Nov-29 09:00N 19°43' W 074°29'1 1.3 1011.0 27.5
2016-Nov-29 08:00N 19°44' W 074°28'1 1.1 1010.8 27.5
2016-Nov-29 07:00N 19°44' W 074°26'2 1.8 1011.1 27.6
2016-Nov-29 06:00N 19°44' W 074°25'2 1.8 1011.4 27.6
2016-Nov-29 05:00N 19°45' W 074°23'1 1.3 1011.8 27.6
2016-Nov-29 04:00N 19°46' W 074°22'2 1.8 1012.1 27.6
2016-Nov-29 03:00N 19°46' W 074°20'2 1.8 1012.4 27.7
2016-Nov-29 02:00N 19°47' W 074°18'1 1.3 1012.0 27.7
2016-Nov-29 01:00N 19°47' W 074°17'1 1.3 1011.6 27.7
2016-Nov-29 00:00N 19°48' W 074°16'1 1.1 1011.2 27.8
2016-Nov-28 23:00N 19°48' W 074°14'2 1.8 1010.7 27.8
2016-Nov-28 22:00N 19°49' W 074°13'1 1.3 1010.4 27.9
2016-Nov-28 21:00N 19°49' W 074°11'2 1.7 1010.1 27.9
2016-Nov-28 20:00N 19°49' W 074°10'1 1.3 1010.0 27.9
2016-Nov-28 19:00N 19°50' W 074°08'1 1.3 1010.3 27.9
2016-Nov-28 18:00N 19°50' W 074°07'1 1.1 1010.5 27.9
2016-Nov-28 17:00N 19°50' W 074°06'2 1.8 1011.6 27.9
2016-Nov-28 16:00N 19°51' W 074°04'1 1.1 1012.3 27.9
2016-Nov-28 15:00N 19°51' W 074°03'1 1.3 1012.6 27.9
2016-Nov-28 14:00N 19°52' W 074°02'2 1.7 1012.4 27.9
2016-Nov-28 13:00N 19°52' W 074°00'1 1.3 1011.7 27.9
2016-Nov-28 12:00N 19°52' W 073°59'2 1.7 1011.3 27.9
2016-Nov-28 11:00N 19°52' W 073°57'1 1.1 1010.7 27.9
2016-Nov-28 10:00N 19°52' W 073°56'1 1.3 1010.2 27.9
2016-Nov-28 09:00N 19°53' W 073°55'1 1.1 1010.1 28.0
2016-Nov-28 08:00N 19°53' W 073°53'1 0.6 1010.1 28.0
2016-Nov-28 07:00N 19°53' W 073°53'1 1.3 1010.5 28.0
2016-Nov-28 06:00N 19°53' W 073°52'1 1.3 1011.0 28.0
2016-Nov-28 05:00N 19°54' W 073°50'1 1.3 1011.5 28.0
2016-Nov-28 04:00N 19°55' W 073°49'1 0.6 1012.0 28.0
2016-Nov-28 03:00N 19°55' W 073°49'1 0.8 1012.2 28.0
2016-Nov-28 02:00N 19°55' W 073°48'1 1.3 1012.0 28.0
2016-Nov-28 01:00N 19°56' W 073°47'1 0.8 1011.6 28.0
2016-Nov-28 00:00N 19°56' W 073°46'1 0.8 1011.1 27.9
2016-Nov-27 23:00N 19°57' W 073°46'1 0.6 1010.6 27.8
2016-Nov-27 22:00N 19°58' W 073°46'1 0.8 1010.2 27.7
2016-Nov-27 21:00N 19°58' W 073°45'1 0.8 1010.1 27.6
2016-Nov-27 20:00N 19°59' W 073°44'1 0.8 1009.9 27.5
2016-Nov-27 19:00N 19°59' W 073°44'1 1.2 1010.1 27.5
2016-Nov-27 18:00N 20°01' W 073°44'1 0.8 1010.3 27.5
2016-Nov-27 17:00N 20°01' W 073°43'1 0.8 1011.3 27.6
2016-Nov-27 16:00N 20°02' W 073°43'1 1.1 1011.4 27.6
2016-Nov-27 15:00N 20°02' W 073°41'1 0.6 1012.1 27.6
2016-Nov-27 14:00N 20°02' W 073°41'1 1.3 1012.1 27.5
2016-Nov-27 13:00N 20°02' W 073°40'1 0.6 1011.7 27.5
2016-Nov-27 12:00N 20°02' W 073°39'1 0.6 1011.4 27.5
2016-Nov-27 11:00N 20°02' W 073°38'1 1.3 1010.7 27.4
2016-Nov-27 10:00N 20°02' W 073°37'1 1.1 1010.6 27.5
2016-Nov-27 09:00N 20°02' W 073°36'1 1.1 1010.6 27.5
2016-Nov-27 08:00N 20°02' W 073°35'1 1.1 1010.6 27.5
2016-Nov-27 07:00N 20°02' W 073°34'1 0.6 1010.8 27.5
2016-Nov-27 06:00N 20°02' W 073°33'2 0.9 1011.8 27.4
2016-Nov-27 04:00N 20°02' W 073°31'1 0.6 1012.9 27.3
2016-Nov-27 03:00N 20°02' W 073°31'1 0.6 1013.2 27.3
2016-Nov-27 02:00N 20°02' W 073°30'1 0.6 1013.6 27.3
2016-Nov-27 01:00N 20°02' W 073°29'1 1.1 1013.3 27.3
2016-Nov-27 00:00N 20°02' W 073°28'1 0.8 1012.9 27.3
2016-Nov-26 23:00N 20°03' W 073°28'1 1.1 1012.2 27.4
2016-Nov-26 22:00N 20°03' W 073°26'1 1.3 1011.5 27.3
2016-Nov-26 21:00N 20°04' W 073°25'1 1.1 1011.1 27.4
2016-Nov-26 20:00N 20°04' W 073°24'1 0.8 1011.2 27.4
2016-Nov-26 19:00N 20°04' W 073°23'2 1.7 1011.9 27.5
2016-Nov-26 18:00N 20°04' W 073°22'1 1.3 1012.7 27.7
2016-Nov-26 17:00N 20°05' W 073°20'1 1.3 1013.4 27.6
2016-Nov-26 16:00N 20°05' W 073°19'2 1.8 1014.3 27.6
2016-Nov-26 15:00N 20°06' W 073°17'1 1.3 1014.9 27.6
2016-Nov-26 14:00N 20°07' W 073°16'2 1.6 1015.1 27.6
2016-Nov-26 13:00N 20°08' W 073°15'1 1.1 1014.6 27.6
2016-Nov-26 12:00N 20°08' W 073°14'1 1.3 1014.2 27.6
2016-Nov-26 11:00N 20°08' W 073°13'1 1.1 1013.8 27.6
2016-Nov-26 10:00N 20°08' W 073°11'2 1.7 1013.4 27.6
2016-Nov-26 09:00N 20°08' W 073°10'2 1.7 1013.0 27.6
2016-Nov-26 08:00N 20°08' W 073°08'1 1.3 1013.3 27.6
2016-Nov-26 07:00N 20°09' W 073°07'2 1.7 1013.5 27.6
2016-Nov-26 06:00N 20°09' W 073°05'1 1.3 1014.2 27.6
2016-Nov-26 05:00N 20°10' W 073°04'1 1.1 1014.7 27.6
2016-Nov-26 04:00N 20°10' W 073°02'3 1.4 1015.2 27.6
2016-Nov-26 02:00N 20°10' W 072°59'2 1.7 1015.5 27.7
2016-Nov-26 01:00N 20°10' W 072°58'2 1.8 1015.3 27.7
2016-Nov-26 00:00N 20°11' W 072°56'2 1.7 1014.9 27.7
2016-Nov-25 23:00N 20°11' W 072°54'2 1.7 1014.4 27.7
2016-Nov-25 22:00N 20°11' W 072°52'1 1.1 1014.1 27.6
2016-Nov-25 21:00N 20°11' W 072°51'2 1.7 1013.7 27.6
2016-Nov-25 20:00N 20°11' W 072°49'2 1.8 1014.0 27.5
2016-Nov-25 19:00N 20°10' W 072°47'1 1.1 1014.5 27.5
2016-Nov-25 18:00N 20°10' W 072°46'2 1.8 1014.8 27.5
2016-Nov-25 17:00N 20°10' W 072°44'2 1.7 1015.5 27.5
2016-Nov-25 16:00N 20°10' W 072°43'2 1.8 1016.2 27.5
2016-Nov-25 15:00N 20°10' W 072°41'2 1.7 1016.7 27.6
2016-Nov-25 14:00N 20°10' W 072°39'1 1.1 1016.9 27.6
2016-Nov-25 13:00N 20°10' W 072°38'1 1.1 1016.4 27.6
2016-Nov-25 12:00N 20°10' W 072°37'1 1.3 1015.8 27.6
2016-Nov-25 11:00N 20°11' W 072°35'2 1.7 1015.5 27.6
2016-Nov-25 10:00N 20°11' W 072°34'1 1.1 1015.0 27.6
2016-Nov-25 09:00N 20°11' W 072°32'2 1.7 1014.7 27.7
2016-Nov-25 08:00N 20°11' W 072°31'1 1.3 1014.9 27.7
2016-Nov-25 07:00N 20°10' W 072°29'2 1.7 1014.8 27.7
2016-Nov-25 06:00N 20°10' W 072°28'1 1.3 1014.7 27.7
2016-Nov-25 05:00N 20°11' W 072°26'1 1.3 1015.2 27.7
2016-Nov-25 04:00N 20°11' W 072°25'1 1.1 1015.7 27.8
2016-Nov-25 03:00N 20°11' W 072°24'1 1.1 1015.9 27.7
2016-Nov-25 02:00N 20°11' W 072°23'1 1.3 1015.7 27.8
2016-Nov-25 01:00N 20°12' W 072°22'1 1.1 1015.6 27.8
2016-Nov-25 00:00N 20°12' W 072°20'1 1.1 1015.3 27.8
2016-Nov-24 23:00N 20°12' W 072°19'1 1.1 1014.7 27.8
2016-Nov-24 22:00N 20°12' W 072°18'1 1.1 1014.5 27.8
2016-Nov-24 21:00N 20°12' W 072°17'1 1.3 1014.5 27.8
2016-Nov-24 20:00N 20°13' W 072°16'1 1.1 1014.2 27.8
2016-Nov-24 19:00N 20°13' W 072°14'1 1.1 1014.6 27.8
2016-Nov-24 18:00N 20°13' W 072°13'1 1.1 1014.9 27.8
2016-Nov-24 17:00N 20°13' W 072°12'1 1.3 1016.2 27.8
2016-Nov-24 16:00N 20°13' W 072°11'1 1.1 1017.1 27.8
2016-Nov-24 15:00N 20°13' W 072°10'1 1.1 1017.3 27.8
2016-Nov-24 14:00N 20°13' W 072°08'1 1.3 1017.5 27.8
2016-Nov-24 13:00N 20°14' W 072°07'2 1.1 1016.9 27.8
2016-Nov-24 11:00N 20°14' W 072°05'1 1.1 1015.9 27.8
2016-Nov-24 10:00N 20°14' W 072°04'1 1.3 1015.2 27.8
2016-Nov-24 09:00N 20°14' W 072°02'1 1.1 1014.8 27.8
2016-Nov-24 08:00N 20°14' W 072°01'2 1.7 1014.2 27.8
2016-Nov-24 07:00N 20°14' W 071°59'1 1.1 1014.0 27.8
2016-Nov-24 06:00N 20°14' W 071°58'2 1.7 1014.5 27.8
2016-Nov-24 05:00N 20°14' W 071°56'1 1.1 1015.0 27.8
2016-Nov-24 04:00N 20°14' W 071°55'2 1.2 1015.3 27.8
2016-Nov-24 02:00N 20°15' W 071°53'1 1.1 1015.5 27.8
2016-Nov-24 01:00N 20°15' W 071°52'2 1.8 1015.5 27.8
2016-Nov-24 00:00N 20°16' W 071°50'1 1.1 1014.7 27.8
2016-Nov-23 23:00N 20°16' W 071°49'1 1.3 1014.3 27.8
2016-Nov-23 22:00N 20°16' W 071°47'2 1.8 1014.0 27.8
2016-Nov-23 21:00N 20°17' W 071°46'1 1.1 1013.4 27.8
2016-Nov-23 20:00N 20°17' W 071°44'1 1.3 1013.5 27.7
2016-Nov-23 19:00N 20°17' W 071°43'1 1.3 1013.7 27.7
2016-Nov-23 18:00N 20°18' W 071°42'1 1.3 1014.1 27.6
2016-Nov-23 17:00N 20°19' W 071°41'1 0.6 1014.9 27.6
2016-Nov-23 16:00N 20°19' W 071°40'1 1.3 1015.7 27.5
2016-Nov-23 15:00N 20°19' W 071°39'1 1.1 1016.1 27.5
2016-Nov-23 14:00N 20°19' W 071°38'1 1.1 1016.4 27.5
2016-Nov-23 13:00N 20°19' W 071°37'1 1.3 1016.2 27.5
2016-Nov-23 12:00N 20°20' W 071°35'1 1.1 1015.7 27.5
2016-Nov-23 11:00N 20°20' W 071°34'1 1.1 1015.3 27.5
2016-Nov-23 10:00N 20°20' W 071°33'1 1.3 1014.8 27.5
2016-Nov-23 09:00N 20°20' W 071°32'1 1.1 1014.3 27.5
2016-Nov-23 08:00N 20°20' W 071°31'1 1.3 1014.5 27.5
2016-Nov-23 07:00N 20°21' W 071°29'1 1.1 1014.9 27.5
2016-Nov-23 06:00N 20°21' W 071°28'1 1.1 1015.5 27.5
2016-Nov-23 05:00N 20°21' W 071°27'2 1.2 1016.0 27.5
2016-Nov-23 03:00N 20°22' W 071°25'1 1.1 1016.9 27.6
2016-Nov-23 02:00N 20°22' W 071°23'2 1.8 1017.0 27.6
2016-Nov-23 01:00N 20°22' W 071°22'1 1.3 1016.4 27.6
2016-Nov-23 00:00N 20°23' W 071°20'   1015.7 27.7
Track history (hours):
 
Tides and Currents Weather Stations Pressure Air Temp Water Temp Dewpoint Dewpoint Depression Visibility Wind Speed Wind Dir Waves Ship Positions

Drifting buoy 44837

Last reported at 2016-Dec-03 00:00 UTC. Time now 2016-Dec-03 02:32 UTC.
Position N 18°37' W 075°31'.

Barometer 1012.9 mb
Water temperature 28.2 ° C

Date/timePositionNaut miles runAvg speedWind from/ knotsBaromVisibWave heightAir tempDewpointWater temp
2016-Dec-03 00:00N 18°37' W 075°31'1 0.8 1012.9 28.2
2016-Dec-02 23:00N 18°37' W 075°31'0 0.0 1012.4 28.2
2016-Dec-02 22:00N 18°37' W 075°31'1 0.8 1012.1 28.2
2016-Dec-02 21:00N 18°38' W 075°30'1 0.8 1012.0 28.3
2016-Dec-02 20:00N 18°38' W 075°29'1 0.6 1011.9 28.3
2016-Dec-02 19:00N 18°39' W 075°29'1 0.8 1012.3 28.3
2016-Dec-02 18:00N 18°40' W 075°29'1 0.8 1012.9 28.3
2016-Dec-02 17:00N 18°40' W 075°28'1 0.6 1013.9 28.3
2016-Dec-02 16:00N 18°41' W 075°28'1 0.8 1014.6 28.2
2016-Dec-02 15:00N 18°41' W 075°28'0 0.0 1014.8 28.1
2016-Dec-02 14:00N 18°41' W 075°28'1 0.6 1014.9 27.9
2016-Dec-02 13:00N 18°42' W 075°28'0 0.0 1014.5 27.9
2016-Dec-02 12:00N 18°42' W 075°28'1 0.6 1013.7 27.9
2016-Dec-02 11:00N 18°43' W 075°28'1 0.6 1012.7 27.9
2016-Dec-02 10:00N 18°43' W 075°28'1 0.4 1012.2 27.9
2016-Dec-02 08:00N 18°44' W 075°27'1 0.6 1011.7 27.9
2016-Dec-02 07:00N 18°44' W 075°26'1 0.8 1012.0 27.9
2016-Dec-02 06:00N 18°44' W 075°26'1 0.6 1012.6 27.9
2016-Dec-02 05:00N 18°45' W 075°26'1 0.8 1012.8 27.9
2016-Dec-02 04:00N 18°46' W 075°25'1 0.6 1012.8 27.9
2016-Dec-02 03:00N 18°46' W 075°25'1 0.8 1012.7 27.9
2016-Dec-02 02:00N 18°46' W 075°24'1 0.8 1012.5 27.9
2016-Dec-02 01:00N 18°47' W 075°23'1 0.8 1012.2 27.9
2016-Dec-02 00:00N 18°47' W 075°23'1 1.3 1011.5 27.9
2016-Dec-01 23:00N 18°49' W 075°22'1 0.8 1011.2 27.9
2016-Dec-01 22:00N 18°49' W 075°22'1 0.8 1011.1 28.0
2016-Dec-01 21:00N 18°50' W 075°21'1 1.3 1010.9 28.0
2016-Dec-01 20:00N 18°51' W 075°20'1 1.3 1010.6 28.1
2016-Dec-01 19:00N 18°52' W 075°20'1 1.3 1011.0 28.2
2016-Dec-01 18:00N 18°53' W 075°19'1 0.6 1011.5 28.2
2016-Dec-01 17:00N 18°54' W 075°19'1 1.3 1012.5 28.1
2016-Dec-01 16:00N 18°55' W 075°19'1 1.2 1013.3 28.0
2016-Dec-01 15:00N 18°56' W 075°19'1 1.2 1013.6 27.8
2016-Dec-01 14:00N 18°58' W 075°19'1 1.2 1013.2 27.8
2016-Dec-01 13:00N 18°59' W 075°19'1 1.2 1012.7 27.7
2016-Dec-01 12:00N 19°00' W 075°19'1 1.2 1012.2 27.7
2016-Dec-01 11:00N 19°01' W 075°19'1 1.2 1011.6 27.6
2016-Dec-01 10:00N 19°02' W 075°19'2 0.9 1011.3 27.6
2016-Dec-01 08:00N 19°04' W 075°19'1 0.6 1011.3 27.6
2016-Dec-01 07:00N 19°05' W 075°19'1 1.2 1011.7 27.6
2016-Dec-01 06:00N 19°06' W 075°19'1 0.8 1012.3 27.6
2016-Dec-01 05:00N 19°07' W 075°18'2 0.9 1012.7 27.6
2016-Dec-01 03:00N 19°08' W 075°18'1 1.3 1013.4 27.6
2016-Dec-01 02:00N 19°10' W 075°17'1 0.6 1013.3 27.6
2016-Dec-01 01:00N 19°10' W 075°17'1 0.8 1012.9 27.6
2016-Dec-01 00:00N 19°11' W 075°17'1 0.6 1012.4 27.6
2016-Nov-30 23:00N 19°11' W 075°17'1 0.6 1011.6 27.6
2016-Nov-30 22:00N 19°11' W 075°16'1 0.8 1011.3 27.6
2016-Nov-30 21:00N 19°12' W 075°16'1 1.3 1011.0 27.6
2016-Nov-30 20:00N 19°13' W 075°15'1 0.8 1010.6 27.6
2016-Nov-30 19:00N 19°14' W 075°14'1 1.3 1010.3 27.6
2016-Nov-30 18:00N 19°15' W 075°14'1 0.8 1010.7 27.6
2016-Nov-30 17:00N 19°16' W 075°13'1 1.3 1011.7 27.5
2016-Nov-30 16:00N 19°17' W 075°13'1 1.3 1012.2 27.5
2016-Nov-30 15:00N 19°17' W 075°11'1 0.8 1012.3 27.4
2016-Nov-30 14:00N 19°18' W 075°11'1 1.3 1012.3 27.4
2016-Nov-30 13:00N 19°19' W 075°10'1 1.3 1012.0 27.4
2016-Nov-30 12:00N 19°20' W 075°10'1 1.3 1011.7 27.3
2016-Nov-30 11:00N 19°22' W 075°09'1 1.3 1011.1 27.3
2016-Nov-30 10:00N 19°23' W 075°08'1 1.3 1010.7 27.3
2016-Nov-30 09:00N 19°24' W 075°08'2 1.6 1010.4 27.3
2016-Nov-30 08:00N 19°25' W 075°07'1 0.8 1010.8 27.3
2016-Nov-30 07:00N 19°26' W 075°06'2 1.6 1011.2 27.2
2016-Nov-30 06:00N 19°27' W 075°05'1 1.3 1011.8 27.2
2016-Nov-30 05:00N 19°28' W 075°04'1 1.3 1011.8 27.2
2016-Nov-30 04:00N 19°28' W 075°02'2 2.1 1012.5 27.3
2016-Nov-30 03:00N 19°29' W 075°01'2 1.8 1012.9 27.3
2016-Nov-30 02:00N 19°30' W 074°59'2 1.8 1012.4 27.3
2016-Nov-30 01:00N 19°31' W 074°57'2 1.8 1012.0 27.3
2016-Nov-30 00:00N 19°31' W 074°55'2 2.1 1011.3 27.3
2016-Nov-29 23:00N 19°32' W 074°53'2 1.8 1011.0 27.4
2016-Nov-29 22:00N 19°33' W 074°52'2 2.1 1010.7 27.3
2016-Nov-29 21:00N 19°34' W 074°50'2 1.8 1010.9 27.3
2016-Nov-29 20:00N 19°35' W 074°48'2 2.1 1010.8 27.3
2016-Nov-29 19:00N 19°36' W 074°46'2 2.3 1011.0 27.3
2016-Nov-29 18:00N 19°37' W 074°44'2 1.8 1011.5 27.4
2016-Nov-29 17:00N 19°37' W 074°42'2 1.8 1012.3 27.4
2016-Nov-29 16:00N 19°38' W 074°40'2 1.8 1013.0 27.3
2016-Nov-29 15:00N 19°38' W 074°38'2 2.1 1013.4 27.3
2016-Nov-29 14:00N 19°40' W 074°37'2 1.8 1013.2 27.4
2016-Nov-29 13:00N 19°40' W 074°35'2 2.1 1012.8 27.4
2016-Nov-29 12:00N 19°41' W 074°33'1 1.3 1012.5 27.4
2016-Nov-29 11:00N 19°42' W 074°32'2 1.8 1012.0 27.5
2016-Nov-29 10:00N 19°43' W 074°30'1 1.3 1011.3 27.5
2016-Nov-29 09:00N 19°43' W 074°29'1 1.3 1011.0 27.5
2016-Nov-29 08:00N 19°44' W 074°28'1 1.1 1010.8 27.5
2016-Nov-29 07:00N 19°44' W 074°26'2 1.8 1011.1 27.6
2016-Nov-29 06:00N 19°44' W 074°25'2 1.8 1011.4 27.6
2016-Nov-29 05:00N 19°45' W 074°23'1 1.3 1011.8 27.6
2016-Nov-29 04:00N 19°46' W 074°22'2 1.8 1012.1 27.6
2016-Nov-29 03:00N 19°46' W 074°20'2 1.8 1012.4 27.7
2016-Nov-29 02:00N 19°47' W 074°18'1 1.3 1012.0 27.7
2016-Nov-29 01:00N 19°47' W 074°17'1 1.3 1011.6 27.7
2016-Nov-29 00:00N 19°48' W 074°16'1 1.1 1011.2 27.8
2016-Nov-28 23:00N 19°48' W 074°14'2 1.8 1010.7 27.8
2016-Nov-28 22:00N 19°49' W 074°13'1 1.3 1010.4 27.9
2016-Nov-28 21:00N 19°49' W 074°11'2 1.7 1010.1 27.9
2016-Nov-28 20:00N 19°49' W 074°10'1 1.3 1010.0 27.9
2016-Nov-28 19:00N 19°50' W 074°08'1 1.3 1010.3 27.9
2016-Nov-28 18:00N 19°50' W 074°07'1 1.1 1010.5 27.9
2016-Nov-28 17:00N 19°50' W 074°06'2 1.8 1011.6 27.9
2016-Nov-28 16:00N 19°51' W 074°04'1 1.1 1012.3 27.9
2016-Nov-28 15:00N 19°51' W 074°03'1 1.3 1012.6 27.9
2016-Nov-28 14:00N 19°52' W 074°02'2 1.7 1012.4 27.9
2016-Nov-28 13:00N 19°52' W 074°00'1 1.3 1011.7 27.9
2016-Nov-28 12:00N 19°52' W 073°59'2 1.7 1011.3 27.9
2016-Nov-28 11:00N 19°52' W 073°57'1 1.1 1010.7 27.9
2016-Nov-28 10:00N 19°52' W 073°56'1 1.3 1010.2 27.9
2016-Nov-28 09:00N 19°53' W 073°55'1 1.1 1010.1 28.0
2016-Nov-28 08:00N 19°53' W 073°53'1 0.6 1010.1 28.0
2016-Nov-28 07:00N 19°53' W 073°53'1 1.3 1010.5 28.0
2016-Nov-28 06:00N 19°53' W 073°52'1 1.3 1011.0 28.0
2016-Nov-28 05:00N 19°54' W 073°50'1 1.3 1011.5 28.0
2016-Nov-28 04:00N 19°55' W 073°49'1 0.6 1012.0 28.0
2016-Nov-28 03:00N 19°55' W 073°49'1 0.8 1012.2 28.0
2016-Nov-28 02:00N 19°55' W 073°48'1 1.3 1012.0 28.0
2016-Nov-28 01:00N 19°56' W 073°47'1 0.8 1011.6 28.0
2016-Nov-28 00:00N 19°56' W 073°46'1 0.8 1011.1 27.9
2016-Nov-27 23:00N 19°57' W 073°46'1 0.6 1010.6 27.8
2016-Nov-27 22:00N 19°58' W 073°46'1 0.8 1010.2 27.7
2016-Nov-27 21:00N 19°58' W 073°45'1 0.8 1010.1 27.6
2016-Nov-27 20:00N 19°59' W 073°44'1 0.8 1009.9 27.5
2016-Nov-27 19:00N 19°59' W 073°44'1 1.2 1010.1 27.5
2016-Nov-27 18:00N 20°01' W 073°44'1 0.8 1010.3 27.5
2016-Nov-27 17:00N 20°01' W 073°43'1 0.8 1011.3 27.6
2016-Nov-27 16:00N 20°02' W 073°43'1 1.1 1011.4 27.6
2016-Nov-27 15:00N 20°02' W 073°41'1 0.6 1012.1 27.6
2016-Nov-27 14:00N 20°02' W 073°41'1 1.3 1012.1 27.5
2016-Nov-27 13:00N 20°02' W 073°40'1 0.6 1011.7 27.5
2016-Nov-27 12:00N 20°02' W 073°39'1 0.6 1011.4 27.5
2016-Nov-27 11:00N 20°02' W 073°38'1 1.3 1010.7 27.4
2016-Nov-27 10:00N 20°02' W 073°37'1 1.1 1010.6 27.5
2016-Nov-27 09:00N 20°02' W 073°36'1 1.1 1010.6 27.5
2016-Nov-27 08:00N 20°02' W 073°35'1 1.1 1010.6 27.5
2016-Nov-27 07:00N 20°02' W 073°34'1 0.6 1010.8 27.5
2016-Nov-27 06:00N 20°02' W 073°33'2 0.9 1011.8 27.4
2016-Nov-27 04:00N 20°02' W 073°31'1 0.6 1012.9 27.3
2016-Nov-27 03:00N 20°02' W 073°31'1 0.6 1013.2 27.3
2016-Nov-27 02:00N 20°02' W 073°30'1 0.6 1013.6 27.3
2016-Nov-27 01:00N 20°02' W 073°29'1 1.1 1013.3 27.3
2016-Nov-27 00:00N 20°02' W 073°28'1 0.8 1012.9 27.3
2016-Nov-26 23:00N 20°03' W 073°28'1 1.1 1012.2 27.4
2016-Nov-26 22:00N 20°03' W 073°26'1 1.3 1011.5 27.3
2016-Nov-26 21:00N 20°04' W 073°25'1 1.1 1011.1 27.4
2016-Nov-26 20:00N 20°04' W 073°24'1 0.8 1011.2 27.4
2016-Nov-26 19:00N 20°04' W 073°23'2 1.7 1011.9 27.5
2016-Nov-26 18:00N 20°04' W 073°22'1 1.3 1012.7 27.7
2016-Nov-26 17:00N 20°05' W 073°20'1 1.3 1013.4 27.6
2016-Nov-26 16:00N 20°05' W 073°19'2 1.8 1014.3 27.6
2016-Nov-26 15:00N 20°06' W 073°17'1 1.3 1014.9 27.6
2016-Nov-26 14:00N 20°07' W 073°16'2 1.6 1015.1 27.6
2016-Nov-26 13:00N 20°08' W 073°15'1 1.1 1014.6 27.6
2016-Nov-26 12:00N 20°08' W 073°14'1 1.3 1014.2 27.6
2016-Nov-26 11:00N 20°08' W 073°13'1 1.1 1013.8 27.6
2016-Nov-26 10:00N 20°08' W 073°11'2 1.7 1013.4 27.6
2016-Nov-26 09:00N 20°08' W 073°10'2 1.7 1013.0 27.6
2016-Nov-26 08:00N 20°08' W 073°08'1 1.3 1013.3 27.6
2016-Nov-26 07:00N 20°09' W 073°07'2 1.7 1013.5 27.6
2016-Nov-26 06:00N 20°09' W 073°05'1 1.3 1014.2 27.6
2016-Nov-26 05:00N 20°10' W 073°04'1 1.1 1014.7 27.6
2016-Nov-26 04:00N 20°10' W 073°02'3 1.4 1015.2 27.6
2016-Nov-26 02:00N 20°10' W 072°59'2 1.7 1015.5 27.7
2016-Nov-26 01:00N 20°10' W 072°58'2 1.8 1015.3 27.7
2016-Nov-26 00:00N 20°11' W 072°56'2 1.7 1014.9 27.7
2016-Nov-25 23:00N 20°11' W 072°54'2 1.7 1014.4 27.7
2016-Nov-25 22:00N 20°11' W 072°52'1 1.1 1014.1 27.6
2016-Nov-25 21:00N 20°11' W 072°51'2 1.7 1013.7 27.6
2016-Nov-25 20:00N 20°11' W 072°49'2 1.8 1014.0 27.5
2016-Nov-25 19:00N 20°10' W 072°47'1 1.1 1014.5 27.5
2016-Nov-25 18:00N 20°10' W 072°46'2 1.8 1014.8 27.5
2016-Nov-25 17:00N 20°10' W 072°44'2 1.7 1015.5 27.5
2016-Nov-25 16:00N 20°10' W 072°43'2 1.8 1016.2 27.5
2016-Nov-25 15:00N 20°10' W 072°41'2 1.7 1016.7 27.6
2016-Nov-25 14:00N 20°10' W 072°39'1 1.1 1016.9 27.6
2016-Nov-25 13:00N 20°10' W 072°38'1 1.1 1016.4 27.6
2016-Nov-25 12:00N 20°10' W 072°37'1 1.3 1015.8 27.6
2016-Nov-25 11:00N 20°11' W 072°35'2 1.7 1015.5 27.6
2016-Nov-25 10:00N 20°11' W 072°34'1 1.1 1015.0 27.6
2016-Nov-25 09:00N 20°11' W 072°32'2 1.7 1014.7 27.7
2016-Nov-25 08:00N 20°11' W 072°31'1 1.3 1014.9 27.7
2016-Nov-25 07:00N 20°10' W 072°29'2 1.7 1014.8 27.7
2016-Nov-25 06:00N 20°10' W 072°28'1 1.3 1014.7 27.7
2016-Nov-25 05:00N 20°11' W 072°26'1 1.3 1015.2 27.7
2016-Nov-25 04:00N 20°11' W 072°25'1 1.1 1015.7 27.8
2016-Nov-25 03:00N 20°11' W 072°24'1 1.1 1015.9 27.7
2016-Nov-25 02:00N 20°11' W 072°23'1 1.3 1015.7 27.8
2016-Nov-25 01:00N 20°12' W 072°22'1 1.1 1015.6 27.8
2016-Nov-25 00:00N 20°12' W 072°20'1 1.1 1015.3 27.8
2016-Nov-24 23:00N 20°12' W 072°19'1 1.1 1014.7 27.8
2016-Nov-24 22:00N 20°12' W 072°18'1 1.1 1014.5 27.8
2016-Nov-24 21:00N 20°12' W 072°17'1 1.3 1014.5 27.8
2016-Nov-24 20:00N 20°13' W 072°16'1 1.1 1014.2 27.8
2016-Nov-24 19:00N 20°13' W 072°14'1 1.1 1014.6 27.8
2016-Nov-24 18:00N 20°13' W 072°13'1 1.1 1014.9 27.8
2016-Nov-24 17:00N 20°13' W 072°12'1 1.3 1016.2 27.8
2016-Nov-24 16:00N 20°13' W 072°11'1 1.1 1017.1 27.8
2016-Nov-24 15:00N 20°13' W 072°10'1 1.1 1017.3 27.8
2016-Nov-24 14:00N 20°13' W 072°08'1 1.3 1017.5 27.8
2016-Nov-24 13:00N 20°14' W 072°07'2 1.1 1016.9 27.8
2016-Nov-24 11:00N 20°14' W 072°05'1 1.1 1015.9 27.8
2016-Nov-24 10:00N 20°14' W 072°04'1 1.3 1015.2 27.8
2016-Nov-24 09:00N 20°14' W 072°02'1 1.1 1014.8 27.8
2016-Nov-24 08:00N 20°14' W 072°01'2 1.7 1014.2 27.8
2016-Nov-24 07:00N 20°14' W 071°59'1 1.1 1014.0 27.8
2016-Nov-24 06:00N 20°14' W 071°58'2 1.7 1014.5 27.8
2016-Nov-24 05:00N 20°14' W 071°56'1 1.1 1015.0 27.8
2016-Nov-24 04:00N 20°14' W 071°55'2 1.2 1015.3 27.8
2016-Nov-24 02:00N 20°15' W 071°53'1 1.1 1015.5 27.8
2016-Nov-24 01:00N 20°15' W 071°52'2 1.8 1015.5 27.8
2016-Nov-24 00:00N 20°16' W 071°50'1 1.1 1014.7 27.8
2016-Nov-23 23:00N 20°16' W 071°49'1 1.3 1014.3 27.8
2016-Nov-23 22:00N 20°16' W 071°47'2 1.8 1014.0 27.8
2016-Nov-23 21:00N 20°17' W 071°46'1 1.1 1013.4 27.8
2016-Nov-23 20:00N 20°17' W 071°44'1 1.3 1013.5 27.7
2016-Nov-23 19:00N 20°17' W 071°43'1 1.3 1013.7 27.7
2016-Nov-23 18:00N 20°18' W 071°42'1 1.3 1014.1 27.6
2016-Nov-23 17:00N 20°19' W 071°41'1 0.6 1014.9 27.6
2016-Nov-23 16:00N 20°19' W 071°40'1 1.3 1015.7 27.5
2016-Nov-23 15:00N 20°19' W 071°39'1 1.1 1016.1 27.5
2016-Nov-23 14:00N 20°19' W 071°38'1 1.1 1016.4 27.5
2016-Nov-23 13:00N 20°19' W 071°37'1 1.3 1016.2 27.5
2016-Nov-23 12:00N 20°20' W 071°35'1 1.1 1015.7 27.5
2016-Nov-23 11:00N 20°20' W 071°34'1 1.1 1015.3 27.5
2016-Nov-23 10:00N 20°20' W 071°33'1 1.3 1014.8 27.5
2016-Nov-23 09:00N 20°20' W 071°32'1 1.1 1014.3 27.5
2016-Nov-23 08:00N 20°20' W 071°31'1 1.3 1014.5 27.5
2016-Nov-23 07:00N 20°21' W 071°29'1 1.1 1014.9 27.5
2016-Nov-23 06:00N 20°21' W 071°28'1 1.1 1015.5 27.5
2016-Nov-23 05:00N 20°21' W 071°27'2 1.2 1016.0 27.5
2016-Nov-23 03:00N 20°22' W 071°25'1 1.1 1016.9 27.6
2016-Nov-23 02:00N 20°22' W 071°23'2 1.8 1017.0 27.6
2016-Nov-23 01:00N 20°22' W 071°22'1 1.3 1016.4 27.6
2016-Nov-23 00:00N 20°23' W 071°20'   1015.7 27.7

Dump ship's entire track history